sensor_id;sensor_type;location;lat;lon;timestamp;temperature;humidity
41294;DHT22;27037;52.010;4.446;2023-12-04T00:00:26;2.30;99.90
41294;DHT22;27037;52.010;4.446;2023-12-04T00:02:52;2.30;99.90
41294;DHT22;27037;52.010;4.446;2023-12-04T00:05:18;2.30;99.90
41294;DHT22;27037;52.010;4.446;2023-12-04T00:07:43;2.30;99.90
41294;DHT22;27037;52.010;4.446;2023-12-04T00:10:09;2.30;99.90
41294;DHT22;27037;52.010;4.446;2023-12-04T00:12:35;2.30;99.90
41294;DHT22;27037;52.010;4.446;2023-12-04T00:15:00;2.30;99.90
41294;DHT22;27037;52.010;4.446;2023-12-04T00:17:26;2.30;99.90
41294;DHT22;27037;52.010;4.446;2023-12-04T00:19:51;2.30;99.90
41294;DHT22;27037;52.010;4.446;2023-12-04T00:22:17;2.30;99.90
41294;DHT22;27037;52.010;4.446;2023-12-04T00:24:42;2.30;99.90
41294;DHT22;27037;52.010;4.446;2023-12-04T00:27:08;2.30;99.90
41294;DHT22;27037;52.010;4.446;2023-12-04T00:29:33;2.30;99.90
41294;DHT22;27037;52.010;4.446;2023-12-04T00:31:59;2.30;99.90
41294;DHT22;27037;52.010;4.446;2023-12-04T00:34:25;2.30;99.90
41294;DHT22;27037;52.010;4.446;2023-12-04T00:36:50;2.30;99.90
41294;DHT22;27037;52.010;4.446;2023-12-04T00:39:16;2.30;99.90
41294;DHT22;27037;52.010;4.446;2023-12-04T00:41:41;2.30;99.90
41294;DHT22;27037;52.010;4.446;2023-12-04T00:44:08;2.30;99.90
41294;DHT22;27037;52.010;4.446;2023-12-04T00:46:34;2.30;99.90
41294;DHT22;27037;52.010;4.446;2023-12-04T00:48:59;2.30;99.90
41294;DHT22;27037;52.010;4.446;2023-12-04T00:51:25;2.30;99.90
41294;DHT22;27037;52.010;4.446;2023-12-04T00:53:51;2.30;99.90
41294;DHT22;27037;52.010;4.446;2023-12-04T00:56:17;2.30;99.90
41294;DHT22;27037;52.010;4.446;2023-12-04T00:58:44;2.30;99.90
41294;DHT22;27037;52.010;4.446;2023-12-04T01:01:09;2.30;99.90
41294;DHT22;27037;52.010;4.446;2023-12-04T01:03:35;2.30;99.90
41294;DHT22;27037;52.010;4.446;2023-12-04T01:06:00;2.30;99.90
41294;DHT22;27037;52.010;4.446;2023-12-04T01:08:26;2.30;99.90
41294;DHT22;27037;52.010;4.446;2023-12-04T01:10:51;2.30;99.90
41294;DHT22;27037;52.010;4.446;2023-12-04T01:13:17;2.30;99.90
41294;DHT22;27037;52.010;4.446;2023-12-04T01:15:43;2.30;99.90
41294;DHT22;27037;52.010;4.446;2023-12-04T01:18:10;2.30;99.90
41294;DHT22;27037;52.010;4.446;2023-12-04T01:20:37;2.40;99.90
41294;DHT22;27037;52.010;4.446;2023-12-04T01:23:02;2.40;99.90
41294;DHT22;27037;52.010;4.446;2023-12-04T01:25:28;2.40;99.90
41294;DHT22;27037;52.010;4.446;2023-12-04T01:27:53;2.40;99.90
41294;DHT22;27037;52.010;4.446;2023-12-04T01:30:19;2.40;99.90
41294;DHT22;27037;52.010;4.446;2023-12-04T01:32:44;2.40;99.90
41294;DHT22;27037;52.010;4.446;2023-12-04T01:35:10;2.40;99.90
41294;DHT22;27037;52.010;4.446;2023-12-04T01:37:37;2.40;99.90
41294;DHT22;27037;52.010;4.446;2023-12-04T01:40:03;2.40;99.90
41294;DHT22;27037;52.010;4.446;2023-12-04T01:42:31;2.40;99.90
41294;DHT22;27037;52.010;4.446;2023-12-04T01:44:57;2.40;99.90
41294;DHT22;27037;52.010;4.446;2023-12-04T01:47:23;2.40;99.90
41294;DHT22;27037;52.010;4.446;2023-12-04T01:49:48;2.40;99.90
41294;DHT22;27037;52.010;4.446;2023-12-04T01:52:14;2.40;99.90
41294;DHT22;27037;52.010;4.446;2023-12-04T01:54:40;2.40;99.90
41294;DHT22;27037;52.010;4.446;2023-12-04T01:57:06;2.40;99.90
41294;DHT22;27037;52.010;4.446;2023-12-04T01:59:33;2.40;99.90
41294;DHT22;27037;52.010;4.446;2023-12-04T02:01:58;2.40;99.90
41294;DHT22;27037;52.010;4.446;2023-12-04T02:04:25;2.40;99.90
41294;DHT22;27037;52.010;4.446;2023-12-04T02:06:50;2.40;99.90
41294;DHT22;27037;52.010;4.446;2023-12-04T02:09:16;2.40;99.90
41294;DHT22;27037;52.010;4.446;2023-12-04T02:11:42;2.40;99.90
41294;DHT22;27037;52.010;4.446;2023-12-04T02:14:07;2.40;99.90
41294;DHT22;27037;52.010;4.446;2023-12-04T02:16:38;2.40;99.90
41294;DHT22;27037;52.010;4.446;2023-12-04T02:19:07;2.40;99.90
41294;DHT22;27037;52.010;4.446;2023-12-04T02:21:33;2.40;99.90
41294;DHT22;27037;52.010;4.446;2023-12-04T02:23:59;2.40;99.90
41294;DHT22;27037;52.010;4.446;2023-12-04T02:26:30;2.40;99.90
41294;DHT22;27037;52.010;4.446;2023-12-04T02:28:59;2.40;99.90
41294;DHT22;27037;52.010;4.446;2023-12-04T02:31:27;2.40;99.90
41294;DHT22;27037;52.010;4.446;2023-12-04T02:33:55;2.40;99.90
41294;DHT22;27037;52.010;4.446;2023-12-04T02:36:24;2.40;99.90
41294;DHT22;27037;52.010;4.446;2023-12-04T02:38:50;2.40;99.90
41294;DHT22;27037;52.010;4.446;2023-12-04T02:41:16;2.40;99.90
41294;DHT22;27037;52.010;4.446;2023-12-04T02:43:43;2.40;99.90
41294;DHT22;27037;52.010;4.446;2023-12-04T02:46:08;2.40;99.90
41294;DHT22;27037;52.010;4.446;2023-12-04T02:48:34;2.40;99.90
41294;DHT22;27037;52.010;4.446;2023-12-04T02:51:00;2.40;99.90
41294;DHT22;27037;52.010;4.446;2023-12-04T02:53:25;2.40;99.90
41294;DHT22;27037;52.010;4.446;2023-12-04T02:55:51;2.40;99.90
41294;DHT22;27037;52.010;4.446;2023-12-04T02:58:16;2.40;99.90
41294;DHT22;27037;52.010;4.446;2023-12-04T03:00:42;2.40;99.90
41294;DHT22;27037;52.010;4.446;2023-12-04T03:03:07;2.40;99.90
41294;DHT22;27037;52.010;4.446;2023-12-04T03:05:33;2.40;99.90
41294;DHT22;27037;52.010;4.446;2023-12-04T03:07:58;2.40;99.90
41294;DHT22;27037;52.010;4.446;2023-12-04T03:10:24;2.40;99.90
41294;DHT22;27037;52.010;4.446;2023-12-04T03:12:50;2.40;99.90
41294;DHT22;27037;52.010;4.446;2023-12-04T03:15:15;2.40;99.90
41294;DHT22;27037;52.010;4.446;2023-12-04T03:17:41;2.40;99.90
41294;DHT22;27037;52.010;4.446;2023-12-04T03:20:07;2.40;99.90
41294;DHT22;27037;52.010;4.446;2023-12-04T03:22:34;2.40;99.90
41294;DHT22;27037;52.010;4.446;2023-12-04T03:25:00;2.40;99.90
41294;DHT22;27037;52.010;4.446;2023-12-04T03:27:26;2.40;99.90
41294;DHT22;27037;52.010;4.446;2023-12-04T03:29:51;2.40;99.90
41294;DHT22;27037;52.010;4.446;2023-12-04T03:32:17;2.40;99.90
41294;DHT22;27037;52.010;4.446;2023-12-04T03:34:42;2.40;99.90
41294;DHT22;27037;52.010;4.446;2023-12-04T03:37:08;2.40;99.90
41294;DHT22;27037;52.010;4.446;2023-12-04T03:39:33;2.40;99.90
41294;DHT22;27037;52.010;4.446;2023-12-04T03:41:59;2.40;99.90
41294;DHT22;27037;52.010;4.446;2023-12-04T03:44:25;2.40;99.90
41294;DHT22;27037;52.010;4.446;2023-12-04T03:46:50;2.40;99.90
41294;DHT22;27037;52.010;4.446;2023-12-04T03:49:17;2.40;99.90
41294;DHT22;27037;52.010;4.446;2023-12-04T03:51:42;2.40;99.90
41294;DHT22;27037;52.010;4.446;2023-12-04T03:54:08;2.50;99.90
41294;DHT22;27037;52.010;4.446;2023-12-04T03:56:34;2.50;99.90
41294;DHT22;27037;52.010;4.446;2023-12-04T03:58:59;2.50;99.90
41294;DHT22;27037;52.010;4.446;2023-12-04T04:01:25;2.50;99.90
41294;DHT22;27037;52.010;4.446;2023-12-04T04:03:50;2.50;99.90
41294;DHT22;27037;52.010;4.446;2023-12-04T04:06:16;2.50;99.90
41294;DHT22;27037;52.010;4.446;2023-12-04T04:08:42;2.50;99.90
41294;DHT22;27037;52.010;4.446;2023-12-04T04:11:07;2.50;99.90
41294;DHT22;27037;52.010;4.446;2023-12-04T04:13:33;2.50;99.90
41294;DHT22;27037;52.010;4.446;2023-12-04T04:15:58;2.60;99.90
41294;DHT22;27037;52.010;4.446;2023-12-04T04:18:24;2.60;99.90
41294;DHT22;27037;52.010;4.446;2023-12-04T04:20:49;2.60;99.90
41294;DHT22;27037;52.010;4.446;2023-12-04T04:23:15;2.60;99.90
41294;DHT22;27037;52.010;4.446;2023-12-04T04:25:40;2.60;99.90
41294;DHT22;27037;52.010;4.446;2023-12-04T04:28:06;2.60;99.90
41294;DHT22;27037;52.010;4.446;2023-12-04T04:30:32;2.60;99.90
41294;DHT22;27037;52.010;4.446;2023-12-04T04:32:57;2.60;99.90
41294;DHT22;27037;52.010;4.446;2023-12-04T04:35:23;2.60;99.90
41294;DHT22;27037;52.010;4.446;2023-12-04T04:37:48;2.60;99.90
41294;DHT22;27037;52.010;4.446;2023-12-04T04:40:14;2.60;99.90
41294;DHT22;27037;52.010;4.446;2023-12-04T04:42:39;2.60;99.90
41294;DHT22;27037;52.010;4.446;2023-12-04T04:45:05;2.60;99.90
41294;DHT22;27037;52.010;4.446;2023-12-04T04:47:31;2.60;99.90
41294;DHT22;27037;52.010;4.446;2023-12-04T04:49:57;2.60;99.90
41294;DHT22;27037;52.010;4.446;2023-12-04T04:52:22;2.60;99.90
41294;DHT22;27037;52.010;4.446;2023-12-04T04:54:48;2.60;99.90
41294;DHT22;27037;52.010;4.446;2023-12-04T04:57:13;2.60;99.90
41294;DHT22;27037;52.010;4.446;2023-12-04T04:59:39;2.60;99.90
41294;DHT22;27037;52.010;4.446;2023-12-04T05:02:05;2.60;99.90
41294;DHT22;27037;52.010;4.446;2023-12-04T05:04:30;2.60;99.90
41294;DHT22;27037;52.010;4.446;2023-12-04T05:06:56;2.60;99.90
41294;DHT22;27037;52.010;4.446;2023-12-04T05:09:21;2.70;99.90
41294;DHT22;27037;52.010;4.446;2023-12-04T05:11:47;2.60;99.90
41294;DHT22;27037;52.010;4.446;2023-12-04T05:14:13;2.60;99.90
41294;DHT22;27037;52.010;4.446;2023-12-04T05:16:38;2.70;99.90
41294;DHT22;27037;52.010;4.446;2023-12-04T05:19:04;2.60;99.90
41294;DHT22;27037;52.010;4.446;2023-12-04T05:21:29;2.70;99.90
41294;DHT22;27037;52.010;4.446;2023-12-04T05:23:55;2.70;99.90
41294;DHT22;27037;52.010;4.446;2023-12-04T05:26:20;2.70;99.90
41294;DHT22;27037;52.010;4.446;2023-12-04T05:28:46;2.70;99.90
41294;DHT22;27037;52.010;4.446;2023-12-04T05:31:12;2.70;99.90
41294;DHT22;27037;52.010;4.446;2023-12-04T05:33:37;2.70;99.90
41294;DHT22;27037;52.010;4.446;2023-12-04T05:36:03;2.70;99.90
41294;DHT22;27037;52.010;4.446;2023-12-04T05:38:29;2.60;99.90
41294;DHT22;27037;52.010;4.446;2023-12-04T05:40:54;2.60;99.90
41294;DHT22;27037;52.010;4.446;2023-12-04T05:43:20;2.60;99.90
41294;DHT22;27037;52.010;4.446;2023-12-04T05:45:45;2.70;99.90
41294;DHT22;27037;52.010;4.446;2023-12-04T05:48:11;2.70;99.90
41294;DHT22;27037;52.010;4.446;2023-12-04T05:50:37;2.70;99.90
41294;DHT22;27037;52.010;4.446;2023-12-04T05:53:02;2.70;99.90
41294;DHT22;27037;52.010;4.446;2023-12-04T05:55:28;2.70;99.90
41294;DHT22;27037;52.010;4.446;2023-12-04T05:57:53;2.70;99.90
41294;DHT22;27037;52.010;4.446;2023-12-04T06:00:19;2.70;99.90
41294;DHT22;27037;52.010;4.446;2023-12-04T06:02:45;2.70;99.90
41294;DHT22;27037;52.010;4.446;2023-12-04T06:05:10;2.70;99.90
41294;DHT22;27037;52.010;4.446;2023-12-04T06:07:37;2.70;99.90
41294;DHT22;27037;52.010;4.446;2023-12-04T06:10:03;2.60;99.90
41294;DHT22;27037;52.010;4.446;2023-12-04T06:12:32;2.60;99.90
41294;DHT22;27037;52.010;4.446;2023-12-04T06:14:57;2.70;99.90
41294;DHT22;27037;52.010;4.446;2023-12-04T06:17:24;2.70;99.90
41294;DHT22;27037;52.010;4.446;2023-12-04T06:19:50;2.70;99.90
41294;DHT22;27037;52.010;4.446;2023-12-04T06:22:16;2.70;99.90
41294;DHT22;27037;52.010;4.446;2023-12-04T06:24:44;2.70;99.90
41294;DHT22;27037;52.010;4.446;2023-12-04T06:27:11;2.70;99.90
41294;DHT22;27037;52.010;4.446;2023-12-04T06:29:39;2.70;99.90
41294;DHT22;27037;52.010;4.446;2023-12-04T06:32:05;2.70;99.90
41294;DHT22;27037;52.010;4.446;2023-12-04T06:34:31;2.70;99.90
41294;DHT22;27037;52.010;4.446;2023-12-04T06:36:57;2.70;99.90
41294;DHT22;27037;52.010;4.446;2023-12-04T06:39:24;2.70;99.90
41294;DHT22;27037;52.010;4.446;2023-12-04T06:41:50;2.70;99.90
41294;DHT22;27037;52.010;4.446;2023-12-04T06:44:16;2.70;99.90
41294;DHT22;27037;52.010;4.446;2023-12-04T06:46:44;2.70;99.90
41294;DHT22;27037;52.010;4.446;2023-12-04T06:49:14;2.70;99.90
41294;DHT22;27037;52.010;4.446;2023-12-04T06:51:42;2.70;99.90
41294;DHT22;27037;52.010;4.446;2023-12-04T06:54:08;2.70;99.90
41294;DHT22;27037;52.010;4.446;2023-12-04T06:56:33;2.70;99.90
41294;DHT22;27037;52.010;4.446;2023-12-04T06:58:59;2.70;99.90
41294;DHT22;27037;52.010;4.446;2023-12-04T07:01:25;2.70;99.90
41294;DHT22;27037;52.010;4.446;2023-12-04T07:03:51;2.70;99.90
41294;DHT22;27037;52.010;4.446;2023-12-04T07:06:16;2.70;99.90
41294;DHT22;27037;52.010;4.446;2023-12-04T07:08:42;2.70;99.90
41294;DHT22;27037;52.010;4.446;2023-12-04T07:11:08;2.70;99.90
41294;DHT22;27037;52.010;4.446;2023-12-04T07:13:34;2.70;99.90
41294;DHT22;27037;52.010;4.446;2023-12-04T07:15:59;2.70;99.90
41294;DHT22;27037;52.010;4.446;2023-12-04T07:18:25;2.80;99.90
41294;DHT22;27037;52.010;4.446;2023-12-04T07:20:51;2.80;99.90
41294;DHT22;27037;52.010;4.446;2023-12-04T07:23:16;2.80;99.90
41294;DHT22;27037;52.010;4.446;2023-12-04T07:25:42;2.80;99.90
41294;DHT22;27037;52.010;4.446;2023-12-04T07:28:07;2.80;99.90
41294;DHT22;27037;52.010;4.446;2023-12-04T07:30:33;2.80;99.90
41294;DHT22;27037;52.010;4.446;2023-12-04T07:32:59;2.80;99.90
41294;DHT22;27037;52.010;4.446;2023-12-04T07:35:26;2.80;99.90
41294;DHT22;27037;52.010;4.446;2023-12-04T07:37:52;2.90;99.90
41294;DHT22;27037;52.010;4.446;2023-12-04T07:40:18;2.90;99.90
41294;DHT22;27037;52.010;4.446;2023-12-04T07:42:43;2.90;99.90
41294;DHT22;27037;52.010;4.446;2023-12-04T07:45:10;2.90;99.90
41294;DHT22;27037;52.010;4.446;2023-12-04T07:47:36;2.90;99.90
41294;DHT22;27037;52.010;4.446;2023-12-04T07:50:02;2.90;99.90
41294;DHT22;27037;52.010;4.446;2023-12-04T07:52:27;2.90;99.90
41294;DHT22;27037;52.010;4.446;2023-12-04T07:54:53;2.90;99.90
41294;DHT22;27037;52.010;4.446;2023-12-04T07:57:19;2.90;99.90
41294;DHT22;27037;52.010;4.446;2023-12-04T07:59:44;2.90;99.90
41294;DHT22;27037;52.010;4.446;2023-12-04T08:02:10;3.00;99.90
41294;DHT22;27037;52.010;4.446;2023-12-04T08:04:35;3.00;99.90
41294;DHT22;27037;52.010;4.446;2023-12-04T08:07:01;3.00;99.90
41294;DHT22;27037;52.010;4.446;2023-12-04T08:09:27;3.00;99.90
41294;DHT22;27037;52.010;4.446;2023-12-04T08:11:53;3.00;99.90
41294;DHT22;27037;52.010;4.446;2023-12-04T08:14:19;3.00;99.90
41294;DHT22;27037;52.010;4.446;2023-12-04T08:16:44;3.00;99.90
41294;DHT22;27037;52.010;4.446;2023-12-04T08:19:10;3.00;99.90
41294;DHT22;27037;52.010;4.446;2023-12-04T08:21:35;3.10;99.90
41294;DHT22;27037;52.010;4.446;2023-12-04T08:24:01;3.10;99.90
41294;DHT22;27037;52.010;4.446;2023-12-04T08:26:26;3.10;99.90
41294;DHT22;27037;52.010;4.446;2023-12-04T08:28:52;3.00;99.90
41294;DHT22;27037;52.010;4.446;2023-12-04T08:31:18;3.10;99.90
41294;DHT22;27037;52.010;4.446;2023-12-04T08:33:44;3.10;99.90
41294;DHT22;27037;52.010;4.446;2023-12-04T08:36:11;3.10;99.90
41294;DHT22;27037;52.010;4.446;2023-12-04T08:38:37;3.10;99.90
41294;DHT22;27037;52.010;4.446;2023-12-04T08:41:04;3.10;99.90
41294;DHT22;27037;52.010;4.446;2023-12-04T08:43:29;3.10;99.90
41294;DHT22;27037;52.010;4.446;2023-12-04T08:45:55;3.10;99.90
41294;DHT22;27037;52.010;4.446;2023-12-04T08:48:21;3.10;99.90
41294;DHT22;27037;52.010;4.446;2023-12-04T08:50:47;3.10;99.90
41294;DHT22;27037;52.010;4.446;2023-12-04T08:53:13;3.10;99.90
41294;DHT22;27037;52.010;4.446;2023-12-04T08:55:38;3.10;99.90
41294;DHT22;27037;52.010;4.446;2023-12-04T08:58:04;3.10;99.90
41294;DHT22;27037;52.010;4.446;2023-12-04T09:00:30;3.10;99.90
41294;DHT22;27037;52.010;4.446;2023-12-04T09:02:55;3.10;99.90
41294;DHT22;27037;52.010;4.446;2023-12-04T09:05:21;3.10;99.90
41294;DHT22;27037;52.010;4.446;2023-12-04T09:07:47;3.10;99.90
41294;DHT22;27037;52.010;4.446;2023-12-04T09:10:13;3.10;99.90
41294;DHT22;27037;52.010;4.446;2023-12-04T09:12:40;3.10;99.90
41294;DHT22;27037;52.010;4.446;2023-12-04T09:15:06;3.10;99.90
41294;DHT22;27037;52.010;4.446;2023-12-04T09:17:32;3.10;99.90
41294;DHT22;27037;52.010;4.446;2023-12-04T09:19:57;3.10;99.90
41294;DHT22;27037;52.010;4.446;2023-12-04T09:22:23;3.20;99.90
41294;DHT22;27037;52.010;4.446;2023-12-04T09:24:49;3.20;99.90
41294;DHT22;27037;52.010;4.446;2023-12-04T09:27:15;3.20;99.90
41294;DHT22;27037;52.010;4.446;2023-12-04T09:29:41;3.20;99.90
41294;DHT22;27037;52.010;4.446;2023-12-04T09:32:07;3.20;99.90
41294;DHT22;27037;52.010;4.446;2023-12-04T09:34:32;3.20;99.90
41294;DHT22;27037;52.010;4.446;2023-12-04T09:36:58;3.20;99.90
41294;DHT22;27037;52.010;4.446;2023-12-04T09:39:23;3.20;99.90
41294;DHT22;27037;52.010;4.446;2023-12-04T09:41:49;3.20;99.90
41294;DHT22;27037;52.010;4.446;2023-12-04T09:44:16;3.20;99.90
41294;DHT22;27037;52.010;4.446;2023-12-04T09:46:42;3.20;99.90
41294;DHT22;27037;52.010;4.446;2023-12-04T09:49:08;3.20;99.90
41294;DHT22;27037;52.010;4.446;2023-12-04T09:51:34;3.20;99.90
41294;DHT22;27037;52.010;4.446;2023-12-04T09:54:02;3.30;99.90
41294;DHT22;27037;52.010;4.446;2023-12-04T09:56:32;3.30;99.90
41294;DHT22;27037;52.010;4.446;2023-12-04T09:58:59;3.20;99.90
41294;DHT22;27037;52.010;4.446;2023-12-04T10:01:26;3.30;99.90
41294;DHT22;27037;52.010;4.446;2023-12-04T10:03:52;3.30;99.90
41294;DHT22;27037;52.010;4.446;2023-12-04T10:06:19;3.30;99.90
41294;DHT22;27037;52.010;4.446;2023-12-04T10:08:45;3.30;99.90
41294;DHT22;27037;52.010;4.446;2023-12-04T10:11:13;3.30;99.90
41294;DHT22;27037;52.010;4.446;2023-12-04T10:13:40;3.40;99.90
41294;DHT22;27037;52.010;4.446;2023-12-04T10:16:07;3.40;99.90
41294;DHT22;27037;52.010;4.446;2023-12-04T10:18:33;3.40;99.90
41294;DHT22;27037;52.010;4.446;2023-12-04T10:20:59;3.40;99.90
41294;DHT22;27037;52.010;4.446;2023-12-04T10:23:38;3.40;99.90
41294;DHT22;27037;52.010;4.446;2023-12-04T10:26:05;3.50;99.90
41294;DHT22;27037;52.010;4.446;2023-12-04T10:28:30;3.50;99.90
41294;DHT22;27037;52.010;4.446;2023-12-04T10:30:56;3.50;99.90
41294;DHT22;27037;52.010;4.446;2023-12-04T10:33:24;3.50;99.90
41294;DHT22;27037;52.010;4.446;2023-12-04T10:35:51;3.60;99.90
41294;DHT22;27037;52.010;4.446;2023-12-04T10:38:18;3.60;99.90
41294;DHT22;27037;52.010;4.446;2023-12-04T10:40:43;3.70;99.90
41294;DHT22;27037;52.010;4.446;2023-12-04T10:45:38;3.70;99.90
41294;DHT22;27037;52.010;4.446;2023-12-04T10:48:08;3.80;99.90
41294;DHT22;27037;52.010;4.446;2023-12-04T10:50:35;3.80;99.90
41294;DHT22;27037;52.010;4.446;2023-12-04T10:53:05;3.90;99.90
41294;DHT22;27037;52.010;4.446;2023-12-04T10:55:31;3.90;99.90
41294;DHT22;27037;52.010;4.446;2023-12-04T10:57:57;3.90;99.90
41294;DHT22;27037;52.010;4.446;2023-12-04T11:00:24;4.00;99.90
41294;DHT22;27037;52.010;4.446;2023-12-04T11:02:53;4.00;99.90
41294;DHT22;27037;52.010;4.446;2023-12-04T11:05:20;4.10;99.90
41294;DHT22;27037;52.010;4.446;2023-12-04T11:07:53;4.10;99.90
41294;DHT22;27037;52.010;4.446;2023-12-04T11:10:22;4.10;99.90
41294;DHT22;27037;52.010;4.446;2023-12-04T11:12:57;4.10;99.90
41294;DHT22;27037;52.010;4.446;2023-12-04T11:15:23;4.10;99.90
41294;DHT22;27037;52.010;4.446;2023-12-04T11:17:54;4.10;99.90
41294;DHT22;27037;52.010;4.446;2023-12-04T11:20:24;4.10;99.90
41294;DHT22;27037;52.010;4.446;2023-12-04T11:22:53;4.10;99.90
41294;DHT22;27037;52.010;4.446;2023-12-04T11:25:19;4.10;99.90
41294;DHT22;27037;52.010;4.446;2023-12-04T11:27:48;4.10;99.90
41294;DHT22;27037;52.010;4.446;2023-12-04T11:30:15;4.10;99.90
41294;DHT22;27037;52.010;4.446;2023-12-04T11:32:50;4.10;99.90
41294;DHT22;27037;52.010;4.446;2023-12-04T11:35:17;4.10;99.90
41294;DHT22;27037;52.010;4.446;2023-12-04T11:37:44;4.00;99.90
41294;DHT22;27037;52.010;4.446;2023-12-04T11:40:14;4.10;99.90
41294;DHT22;27037;52.010;4.446;2023-12-04T11:42:41;4.10;99.90
41294;DHT22;27037;52.010;4.446;2023-12-04T11:45:07;4.10;99.90
41294;DHT22;27037;52.010;4.446;2023-12-04T11:47:59;4.10;99.90
41294;DHT22;27037;52.010;4.446;2023-12-04T11:50:25;4.10;99.90
41294;DHT22;27037;52.010;4.446;2023-12-04T11:52:52;4.10;99.90
41294;DHT22;27037;52.010;4.446;2023-12-04T11:55:20;4.10;99.90
41294;DHT22;27037;52.010;4.446;2023-12-04T11:57:49;4.20;99.90
41294;DHT22;27037;52.010;4.446;2023-12-04T12:05:13;4.20;99.90
41294;DHT22;27037;52.010;4.446;2023-12-04T12:07:38;4.20;99.90
41294;DHT22;27037;52.010;4.446;2023-12-04T12:10:04;4.10;99.90
41294;DHT22;27037;52.010;4.446;2023-12-04T12:12:31;4.20;99.90
41294;DHT22;27037;52.010;4.446;2023-12-04T12:14:57;4.10;99.90
41294;DHT22;27037;52.010;4.446;2023-12-04T12:17:24;4.20;99.90
41294;DHT22;27037;52.010;4.446;2023-12-04T12:19:50;4.20;99.90
41294;DHT22;27037;52.010;4.446;2023-12-04T12:22:16;4.20;99.90
41294;DHT22;27037;52.010;4.446;2023-12-04T12:24:42;4.20;99.90
41294;DHT22;27037;52.010;4.446;2023-12-04T12:27:08;4.20;99.90
41294;DHT22;27037;52.010;4.446;2023-12-04T12:29:33;4.20;99.90
41294;DHT22;27037;52.010;4.446;2023-12-04T12:31:59;4.10;99.90
41294;DHT22;27037;52.010;4.446;2023-12-04T12:34:24;4.20;99.90
41294;DHT22;27037;52.010;4.446;2023-12-04T12:36:50;4.10;99.90
41294;DHT22;27037;52.010;4.446;2023-12-04T12:39:15;4.10;99.90
41294;DHT22;27037;52.010;4.446;2023-12-04T12:41:50;4.10;99.90
41294;DHT22;27037;52.010;4.446;2023-12-04T12:44:16;4.00;99.90
41294;DHT22;27037;52.010;4.446;2023-12-04T12:46:41;4.00;99.90
41294;DHT22;27037;52.010;4.446;2023-12-04T12:49:07;4.00;99.90
41294;DHT22;27037;52.010;4.446;2023-12-04T12:51:32;4.00;99.90
41294;DHT22;27037;52.010;4.446;2023-12-04T12:53:58;4.00;99.90
41294;DHT22;27037;52.010;4.446;2023-12-04T12:56:27;4.00;99.90
41294;DHT22;27037;52.010;4.446;2023-12-04T12:58:53;4.00;99.90
41294;DHT22;27037;52.010;4.446;2023-12-04T13:01:23;4.00;99.90
41294;DHT22;27037;52.010;4.446;2023-12-04T13:03:50;4.00;99.90
41294;DHT22;27037;52.010;4.446;2023-12-04T13:06:16;4.00;99.90
41294;DHT22;27037;52.010;4.446;2023-12-04T13:08:43;4.00;99.90
41294;DHT22;27037;52.010;4.446;2023-12-04T13:11:08;4.10;99.90
41294;DHT22;27037;52.010;4.446;2023-12-04T13:13:34;4.00;99.90
41294;DHT22;27037;52.010;4.446;2023-12-04T13:15:59;4.00;99.90
41294;DHT22;27037;52.010;4.446;2023-12-04T13:18:25;4.00;99.90
41294;DHT22;27037;52.010;4.446;2023-12-04T13:20:51;4.00;99.90
41294;DHT22;27037;52.010;4.446;2023-12-04T13:23:16;4.00;99.90
41294;DHT22;27037;52.010;4.446;2023-12-04T13:25:42;3.90;99.90
41294;DHT22;27037;52.010;4.446;2023-12-04T13:28:09;3.90;99.90
41294;DHT22;27037;52.010;4.446;2023-12-04T13:30:34;3.90;99.90
41294;DHT22;27037;52.010;4.446;2023-12-04T13:33:00;3.90;99.90
41294;DHT22;27037;52.010;4.446;2023-12-04T13:35:26;3.90;99.90
41294;DHT22;27037;52.010;4.446;2023-12-04T13:37:51;3.90;99.90
41294;DHT22;27037;52.010;4.446;2023-12-04T13:40:21;3.80;99.90
41294;DHT22;27037;52.010;4.446;2023-12-04T13:42:46;3.80;99.90
41294;DHT22;27037;52.010;4.446;2023-12-04T13:45:31;3.80;99.90
41294;DHT22;27037;52.010;4.446;2023-12-04T13:47:57;3.80;99.90
41294;DHT22;27037;52.010;4.446;2023-12-04T13:50:23;3.80;99.90
41294;DHT22;27037;52.010;4.446;2023-12-04T13:52:48;3.80;99.90
41294;DHT22;27037;52.010;4.446;2023-12-04T13:55:21;3.70;99.90
41294;DHT22;27037;52.010;4.446;2023-12-04T13:58:02;3.70;99.90
41294;DHT22;27037;52.010;4.446;2023-12-04T14:00:27;3.70;99.90
41294;DHT22;27037;52.010;4.446;2023-12-04T14:02:53;3.70;99.90
41294;DHT22;27037;52.010;4.446;2023-12-04T14:05:19;3.70;99.90
41294;DHT22;27037;52.010;4.446;2023-12-04T14:07:47;3.60;99.90
41294;DHT22;27037;52.010;4.446;2023-12-04T14:10:13;3.60;99.90
41294;DHT22;27037;52.010;4.446;2023-12-04T14:12:42;3.60;99.90
41294;DHT22;27037;52.010;4.446;2023-12-04T14:15:08;3.60;99.90
41294;DHT22;27037;52.010;4.446;2023-12-04T14:17:34;3.60;99.90
41294;DHT22;27037;52.010;4.446;2023-12-04T14:20:00;3.60;99.90
41294;DHT22;27037;52.010;4.446;2023-12-04T14:22:25;3.60;99.90
41294;DHT22;27037;52.010;4.446;2023-12-04T14:24:51;3.60;99.90
41294;DHT22;27037;52.010;4.446;2023-12-04T14:27:17;3.50;99.90
41294;DHT22;27037;52.010;4.446;2023-12-04T14:29:43;3.50;99.90
41294;DHT22;27037;52.010;4.446;2023-12-04T14:32:10;3.50;99.90
41294;DHT22;27037;52.010;4.446;2023-12-04T14:34:35;3.50;99.90
41294;DHT22;27037;52.010;4.446;2023-12-04T14:37:01;3.50;99.90
41294;DHT22;27037;52.010;4.446;2023-12-04T14:39:26;3.40;99.90
41294;DHT22;27037;52.010;4.446;2023-12-04T14:41:52;3.40;99.90
41294;DHT22;27037;52.010;4.446;2023-12-04T14:44:18;3.40;99.90
41294;DHT22;27037;52.010;4.446;2023-12-04T14:46:43;3.40;99.90
41294;DHT22;27037;52.010;4.446;2023-12-04T14:49:10;3.40;99.90
41294;DHT22;27037;52.010;4.446;2023-12-04T14:51:36;3.40;99.90
41294;DHT22;27037;52.010;4.446;2023-12-04T14:54:01;3.40;99.90
41294;DHT22;27037;52.010;4.446;2023-12-04T14:56:46;3.40;99.90
41294;DHT22;27037;52.010;4.446;2023-12-04T14:59:32;3.30;99.90
41294;DHT22;27037;52.010;4.446;2023-12-04T15:02:15;3.30;99.90
41294;DHT22;27037;52.010;4.446;2023-12-04T15:05:00;3.30;99.90
41294;DHT22;27037;52.010;4.446;2023-12-04T15:07:34;3.30;99.90
41294;DHT22;27037;52.010;4.446;2023-12-04T15:10:00;3.20;99.90
41294;DHT22;27037;52.010;4.446;2023-12-04T15:12:51;3.20;99.90
41294;DHT22;27037;52.010;4.446;2023-12-04T15:15:26;3.20;99.90
41294;DHT22;27037;52.010;4.446;2023-12-04T15:18:10;3.20;99.90
41294;DHT22;27037;52.010;4.446;2023-12-04T15:20:54;3.20;99.90
41294;DHT22;27037;52.010;4.446;2023-12-04T15:23:20;3.20;99.90
41294;DHT22;27037;52.010;4.446;2023-12-04T15:25:46;3.20;99.90
41294;DHT22;27037;52.010;4.446;2023-12-04T15:28:12;3.20;99.90
41294;DHT22;27037;52.010;4.446;2023-12-04T15:30:41;3.10;99.90
41294;DHT22;27037;52.010;4.446;2023-12-04T15:33:10;3.10;99.90
41294;DHT22;27037;52.010;4.446;2023-12-04T15:35:36;3.10;99.90
41294;DHT22;27037;52.010;4.446;2023-12-04T15:38:03;3.10;99.90
41294;DHT22;27037;52.010;4.446;2023-12-04T15:40:29;3.10;99.90
41294;DHT22;27037;52.010;4.446;2023-12-04T15:42:55;3.10;99.90
41294;DHT22;27037;52.010;4.446;2023-12-04T15:45:21;3.10;99.90
41294;DHT22;27037;52.010;4.446;2023-12-04T15:47:47;3.10;99.90